sensor_id;sensor_type;location;lat;lon;timestamp;pressure;altitude;pressure_sealevel;temperature;humidity
929;BME280;451;47.988;7.842;2024-01-30T00:07:03;99880.34;;;5.71;88.15
929;BME280;451;47.988;7.842;2024-01-30T00:16:07;99875.97;;;5.59;88.95
929;BME280;451;47.988;7.842;2024-01-30T00:25:10;99876.59;;;5.62;87.90
929;BME280;451;47.988;7.842;2024-01-30T00:34:15;99883.69;;;5.48;89.24
929;BME280;451;47.988;7.842;2024-01-30T00:43:18;99869.69;;;5.23;92.03
929;BME280;451;47.988;7.842;2024-01-30T00:52:24;99880.22;;;5.35;91.52
929;BME280;451;47.988;7.842;2024-01-30T01:01:27;99876.69;;;5.36;90.21
929;BME280;451;47.988;7.842;2024-01-30T01:10:31;99875.38;;;5.55;93.25
929;BME280;451;47.988;7.842;2024-01-30T01:19:34;99879.75;;;5.55;88.02
929;BME280;451;47.988;7.842;2024-01-30T01:28:40;99880.88;;;5.51;88.74
929;BME280;451;47.988;7.842;2024-01-30T01:37:43;99877.41;;;5.50;87.42
929;BME280;451;47.988;7.842;2024-01-30T01:46:48;99876.19;;;5.43;87.34
929;BME280;451;47.988;7.842;2024-01-30T01:55:51;99862.84;;;5.48;86.94
929;BME280;451;47.988;7.842;2024-01-30T02:04:57;99863.88;;;5.58;86.84
929;BME280;451;47.988;7.842;2024-01-30T02:14:02;99855.09;;;5.46;85.96
929;BME280;451;47.988;7.842;2024-01-30T02:23:07;99857.50;;;5.37;87.84
929;BME280;451;47.988;7.842;2024-01-30T02:32:11;99867.78;;;5.25;87.64
929;BME280;451;47.988;7.842;2024-01-30T02:41:16;99868.09;;;5.21;89.55
929;BME280;451;47.988;7.842;2024-01-30T02:50:19;99859.03;;;5.26;88.11
929;BME280;451;47.988;7.842;2024-01-30T02:59:23;99877.91;;;5.17;89.00
929;BME280;451;47.988;7.842;2024-01-30T03:08:26;99878.16;;;5.00;91.14
929;BME280;451;47.988;7.842;2024-01-30T03:17:31;99877.63;;;4.95;93.43
929;BME280;451;47.988;7.842;2024-01-30T03:26:34;99883.66;;;4.83;93.62
929;BME280;451;47.988;7.842;2024-01-30T03:35:38;99887.53;;;4.90;94.50
929;BME280;451;47.988;7.842;2024-01-30T03:44:42;99893.22;;;4.82;95.77
929;BME280;451;47.988;7.842;2024-01-30T03:53:46;99894.84;;;4.98;95.79
929;BME280;451;47.988;7.842;2024-01-30T04:02:49;99879.38;;;4.82;95.88
929;BME280;451;47.988;7.842;2024-01-30T04:11:55;99879.41;;;4.95;96.06
929;BME280;451;47.988;7.842;2024-01-30T04:20:58;99868.19;;;5.19;93.06
929;BME280;451;47.988;7.842;2024-01-30T04:30:03;99874.13;;;5.99;89.02
929;BME280;451;47.988;7.842;2024-01-30T04:39:06;99870.50;;;7.55;76.67
929;BME280;451;47.988;7.842;2024-01-30T04:48:13;99869.56;;;8.45;68.71
929;BME280;451;47.988;7.842;2024-01-30T04:57:16;99869.66;;;8.98;65.18
929;BME280;451;47.988;7.842;2024-01-30T05:06:25;99873.91;;;9.10;63.85
929;BME280;451;47.988;7.842;2024-01-30T05:15:28;99880.72;;;9.02;63.41
929;BME280;451;47.988;7.842;2024-01-30T05:24:33;99881.25;;;7.86;67.39
929;BME280;451;47.988;7.842;2024-01-30T05:33:36;99891.25;;;8.47;65.31
929;BME280;451;47.988;7.842;2024-01-30T05:42:40;99874.63;;;9.01;63.40
929;BME280;451;47.988;7.842;2024-01-30T05:51:43;99894.09;;;7.89;67.93
929;BME280;451;47.988;7.842;2024-01-30T06:00:48;99908.56;;;7.70;70.43
929;BME280;451;47.988;7.842;2024-01-30T06:09:51;99913.50;;;8.53;68.12
929;BME280;451;47.988;7.842;2024-01-30T06:18:55;99913.59;;;9.38;64.93
929;BME280;451;47.988;7.842;2024-01-30T06:27:58;99917.19;;;9.57;64.08
929;BME280;451;47.988;7.842;2024-01-30T06:37:03;99921.66;;;9.46;nan
929;BME280;451;47.988;7.842;2024-01-30T06:46:06;99920.31;;;9.30;65.12
929;BME280;451;47.988;7.842;2024-01-30T06:55:11;99924.69;;;9.41;65.16
929;BME280;451;47.988;7.842;2024-01-30T07:04:14;99924.75;;;9.51;65.04
929;BME280;451;47.988;7.842;2024-01-30T07:13:19;99930.03;;;9.40;65.62
929;BME280;451;47.988;7.842;2024-01-30T07:22:22;99936.97;;;9.41;66.41
929;BME280;451;47.988;7.842;2024-01-30T07:31:26;99942.66;;;9.46;65.92
929;BME280;451;47.988;7.842;2024-01-30T07:40:29;99946.25;;;9.45;65.92
929;BME280;451;47.988;7.842;2024-01-30T07:49:34;99954.19;;;9.75;64.66
929;BME280;451;47.988;7.842;2024-01-30T07:58:37;99956.50;;;9.89;63.61
929;BME280;451;47.988;7.842;2024-01-30T08:07:42;99961.16;;;10.18;63.87
929;BME280;451;47.988;7.842;2024-01-30T08:16:45;99938.13;;;10.80;61.61
929;BME280;451;47.988;7.842;2024-01-30T08:25:50;99944.22;;;11.00;61.06
929;BME280;451;47.988;7.842;2024-01-30T08:34:53;99947.44;;;11.13;61.11
929;BME280;451;47.988;7.842;2024-01-30T08:43:58;99939.56;;;11.42;59.54
929;BME280;451;47.988;7.842;2024-01-30T08:53:01;99931.50;;;11.53;60.23
929;BME280;451;47.988;7.842;2024-01-30T09:02:05;99935.81;;;11.74;60.21
929;BME280;451;47.988;7.842;2024-01-30T09:11:09;99934.66;;;11.95;58.46
929;BME280;451;47.988;7.842;2024-01-30T09:20:13;99935.56;;;12.13;57.26
929;BME280;451;47.988;7.842;2024-01-30T09:29:17;99947.19;;;12.21;55.88
929;BME280;451;47.988;7.842;2024-01-30T09:38:21;99934.56;;;12.24;55.44
929;BME280;451;47.988;7.842;2024-01-30T09:47:24;99960.34;;;12.67;55.47
929;BME280;451;47.988;7.842;2024-01-30T09:56:29;99974.25;;;12.87;54.92
929;BME280;451;47.988;7.842;2024-01-30T10:05:33;99970.38;;;12.81;53.38
929;BME280;451;47.988;7.842;2024-01-30T10:14:41;99955.97;;;13.03;54.01
929;BME280;451;47.988;7.842;2024-01-30T10:23:44;99947.22;;;13.03;51.98
929;BME280;451;47.988;7.842;2024-01-30T10:32:48;99948.75;;;13.05;53.95
929;BME280;451;47.988;7.842;2024-01-30T10:41:53;99948.09;;;13.21;53.93
929;BME280;451;47.988;7.842;2024-01-30T10:51:02;99950.72;;;13.39;49.17
929;BME280;451;47.988;7.842;2024-01-30T11:00:08;99943.63;;;13.21;48.03
929;BME280;451;47.988;7.842;2024-01-30T11:09:17;99938.03;;;13.24;48.92
929;BME280;451;47.988;7.842;2024-01-30T11:18:24;99943.75;;;13.73;49.28
929;BME280;451;47.988;7.842;2024-01-30T11:27:28;99933.91;;;13.83;47.94
929;BME280;451;47.988;7.842;2024-01-30T11:36:34;99932.53;;;13.97;48.55
929;BME280;451;47.988;7.842;2024-01-30T11:45:40;99918.56;;;14.12;48.90
929;BME280;451;47.988;7.842;2024-01-30T11:54:45;99899.00;;;14.05;49.56
929;BME280;451;47.988;7.842;2024-01-30T12:03:51;99904.03;;;14.17;49.58
929;BME280;451;47.988;7.842;2024-01-30T12:12:54;99902.88;;;14.45;50.41
929;BME280;451;47.988;7.842;2024-01-30T12:21:59;99898.59;;;14.52;52.03
929;BME280;451;47.988;7.842;2024-01-30T12:31:02;99885.19;;;14.11;53.98
929;BME280;451;47.988;7.842;2024-01-30T12:40:08;99897.78;;;14.26;55.26
929;BME280;451;47.988;7.842;2024-01-30T12:49:11;99891.56;;;14.35;54.75
929;BME280;451;47.988;7.842;2024-01-30T12:58:16;99888.00;;;14.52;54.40
929;BME280;451;47.988;7.842;2024-01-30T13:07:19;99877.97;;;14.72;54.21
929;BME280;451;47.988;7.842;2024-01-30T13:16:23;99886.25;;;14.77;53.83
929;BME280;451;47.988;7.842;2024-01-30T13:25:26;99869.88;;;14.81;54.43
929;BME280;451;47.988;7.842;2024-01-30T13:34:31;99870.25;;;15.03;54.73
929;BME280;451;47.988;7.842;2024-01-30T13:43:34;99860.63;;;14.77;56.17
929;BME280;451;47.988;7.842;2024-01-30T13:52:38;99867.28;;;14.98;56.04
929;BME280;451;47.988;7.842;2024-01-30T14:01:41;99869.13;;;15.21;54.74
929;BME280;451;47.988;7.842;2024-01-30T14:10:46;99880.00;;;14.94;55.69
929;BME280;451;47.988;7.842;2024-01-30T14:19:49;99890.19;;;14.31;57.94
929;BME280;451;47.988;7.842;2024-01-30T14:28:53;99895.16;;;13.92;59.20
929;BME280;451;47.988;7.842;2024-01-30T14:37:57;99903.06;;;13.92;59.68
929;BME280;451;47.988;7.842;2024-01-30T14:47:01;99893.56;;;13.81;60.40
929;BME280;451;47.988;7.842;2024-01-30T14:56:05;99904.47;;;13.78;61.52
929;BME280;451;47.988;7.842;2024-01-30T15:05:10;99910.06;;;13.75;61.17
929;BME280;451;47.988;7.842;2024-01-30T15:14:14;99896.06;;;13.83;60.95
929;BME280;451;47.988;7.842;2024-01-30T15:23:19;99905.66;;;13.40;62.48
929;BME280;451;47.988;7.842;2024-01-30T15:32:22;99908.69;;;13.27;64.16
929;BME280;451;47.988;7.842;2024-01-30T15:41:27;99916.69;;;13.53;62.37
929;BME280;451;47.988;7.842;2024-01-30T15:50:30;99904.66;;;12.88;63.07
929;BME280;451;47.988;7.842;2024-01-30T15:59:34;99918.22;;;12.93;62.38
929;BME280;451;47.988;7.842;2024-01-30T16:08:37;99932.22;;;12.76;63.54
929;BME280;451;47.988;7.842;2024-01-30T16:17:42;99950.91;;;12.65;61.13
929;BME280;451;47.988;7.842;2024-01-30T16:26:45;99936.44;;;12.69;59.54
929;BME280;451;47.988;7.842;2024-01-30T16:35:49;99957.31;;;12.25;63.33
929;BME280;451;47.988;7.842;2024-01-30T16:44:52;99962.56;;;11.79;66.31
929;BME280;451;47.988;7.842;2024-01-30T16:53:57;99968.09;;;11.76;69.65
929;BME280;451;47.988;7.842;2024-01-30T17:03:01;99968.28;;;11.74;69.36
929;BME280;451;47.988;7.842;2024-01-30T17:12:06;99989.44;;;11.72;71.22
929;BME280;451;47.988;7.842;2024-01-30T17:21:16;99991.25;;;11.33;76.78
929;BME280;451;47.988;7.842;2024-01-30T17:30:23;99997.19;;;11.16;80.27
929;BME280;451;47.988;7.842;2024-01-30T17:39:26;100023.63;;;11.05;85.66
929;BME280;451;47.988;7.842;2024-01-30T17:48:31;100012.38;;;11.03;85.90
929;BME280;451;47.988;7.842;2024-01-30T17:57:34;100015.25;;;10.90;89.66
929;BME280;451;47.988;7.842;2024-01-30T18:06:38;100032.97;;;10.88;90.30
929;BME280;451;47.988;7.842;2024-01-30T18:15:42;100023.81;;;10.43;93.30
929;BME280;451;47.988;7.842;2024-01-30T18:24:46;100049.56;;;10.49;92.46
929;BME280;451;47.988;7.842;2024-01-30T18:33:49;100055.06;;;10.46;93.19
929;BME280;451;47.988;7.842;2024-01-30T18:42:54;100059.38;;;10.05;96.04
929;BME280;451;47.988;7.842;2024-01-30T18:51:58;100056.22;;;10.11;96.57
929;BME280;451;47.988;7.842;2024-01-30T19:01:02;100038.75;;;9.69;99.90
929;BME280;451;47.988;7.842;2024-01-30T19:10:06;100069.00;;;9.84;99.99
929;BME280;451;47.988;7.842;2024-01-30T19:19:11;100064.31;;;9.88;99.30
929;BME280;451;47.988;7.842;2024-01-30T19:28:14;100055.72;;;9.65;100.00
929;BME280;451;47.988;7.842;2024-01-30T19:37:19;100045.03;;;9.46;100.00
929;BME280;451;47.988;7.842;2024-01-30T19:46:24;100054.09;;;9.53;100.00
929;BME280;451;47.988;7.842;2024-01-30T19:55:29;100081.94;;;9.33;100.00
929;BME280;451;47.988;7.842;2024-01-30T20:04:33;100083.03;;;9.19;100.00
929;BME280;451;47.988;7.842;2024-01-30T20:13:39;100088.41;;;9.07;100.00
929;BME280;451;47.988;7.842;2024-01-30T20:22:43;100098.78;;;8.86;100.00
929;BME280;451;47.988;7.842;2024-01-30T20:31:47;100097.44;;;8.58;100.00
929;BME280;451;47.988;7.842;2024-01-30T20:40:50;100091.78;;;8.29;100.00
929;BME280;451;47.988;7.842;2024-01-30T20:49:55;100081.50;;;8.26;100.00
929;BME280;451;47.988;7.842;2024-01-30T20:58:58;100085.69;;;8.29;100.00
929;BME280;451;47.988;7.842;2024-01-30T21:08:02;100095.97;;;8.32;100.00
929;BME280;451;47.988;7.842;2024-01-30T21:17:06;100072.53;;;8.06;100.00
929;BME280;451;47.988;7.842;2024-01-30T21:26:11;100084.91;;;8.04;100.00
929;BME280;451;47.988;7.842;2024-01-30T21:35:15;100076.91;;;7.95;100.00
929;BME280;451;47.988;7.842;2024-01-30T21:44:20;100089.34;;;8.15;100.00
929;BME280;451;47.988;7.842;2024-01-30T21:53:23;100099.69;;;8.05;100.00
929;BME280;451;47.988;7.842;2024-01-30T22:02:27;100072.88;;;8.02;100.00
929;BME280;451;47.988;7.842;2024-01-30T22:11:30;100095.03;;;8.09;100.00
929;BME280;451;47.988;7.842;2024-01-30T22:20:35;100095.59;;;8.01;100.00
929;BME280;451;47.988;7.842;2024-01-30T22:29:38;100103.34;;;8.03;100.00
929;BME280;451;47.988;7.842;2024-01-30T22:38:43;100108.69;;;8.01;100.00
929;BME280;451;47.988;7.842;2024-01-30T22:47:46;100115.47;;;7.93;100.00
929;BME280;451;47.988;7.842;2024-01-30T22:56:52;100124.66;;;7.98;100.00
929;BME280;451;47.988;7.842;2024-01-30T23:05:55;100121.78;;;8.01;100.00
929;BME280;451;47.988;7.842;2024-01-30T23:14:59;100112.34;;;7.64;100.00
929;BME280;451;47.988;7.842;2024-01-30T23:24:04;100119.28;;;7.52;100.00
929;BME280;451;47.988;7.842;2024-01-30T23:33:09;100128.06;;;7.27;100.00
929;BME280;451;47.988;7.842;2024-01-30T23:42:12;100127.00;;;7.30;100.00
929;BME280;451;47.988;7.842;2024-01-30T23:51:17;100136.44;;;7.20;100.00
